Accueil
METAR-TAF:

METAR-TAF

Aéroports :

Schwäbisch Hall, Allemagne

latitude: 49-07-06N, longitude: 9-47-02E, altitude: 398 m

Observation

Le bulletin a été fait il y a 31 minutes, à 07:20 UTC
Vent 5 kt de ouest, variant entre sud-ouest et ouest/nord-ouest
Température 17°C
Humidité 68%
Pression 1023 hPa
Visibilité 10 km ou plus
Quelques nuages à une hauteur de 2700 ft
Ciel couvert à une hauteur de 9800 ft

METAR: EDTY 180720Z 27005KT 230V300 9999 FEW027 OVC098 17/11 Q1023

Heure: 09:51 (07:51 UTC)

Prévision

Le bulletin a été fait il y a 2 heures et 51 minutes, à 05:00 UTC
Prévision valable du 18 à 06 UTC au 18 à 15 UTC
Vent 4 kt de ouest
Visibilité 10 km ou plus
Nuages épars à une hauteur de 4000 ft

TAF: EDTY 180500Z 1806/1815 27004KT 9999 SCT040

Observations et prévisions météorologiques de plus de 4000 aéroports (messages METAR et TAF).

Les stations disponibles sont représentées par des disques jaunes et rouges sur la carte.

Passer la souris dessus pour voir le nom de la station.

Cliquer dessus pour voir les observations et prévisions météorologiques.

Pour changer de carte: cliquez sur les boutons verts avec une croix noire pour zoomer, sur le bouton vert avec un tiret pour effectuer un zoom arrière, ou sur les flèches vertes pour les cartes adjacentes.


METAR-TAF: